Woodlinville, Missouri
Current Conditions -  °F | °C
As of 12:35 PM on Thursday 27 Nov 2014 (Local Time) from KVER Reporting Station
Overcast Overcast  
Wind Chill: 26°   Ceiling: 2100
Heat Index: 33°   Visibility: 10mi
Dew Point: 23°   Wind: 7mph
Humidity: 67%   Direction: 300°WNW
Pressure: 30.49"   Gusts: NA
Location:  39.0019°N, 92.5027°W
Report Text: KVER 271835Z AUTO 30006KT 10SM BKN021 OVC085 00/M05 A3049 RMK AO2 T00031051
Loading
Personal Weather Stations






























Interactive Weather Map New forecast layout! Learn more

10-Day Weather Forecast

Advertisements
Track Severe Weather on mobile